Time;durP1;ratioP1;P1;durP2;ratioP2;P2;SDS_P1;SDS_P2;PMS_P1;PMS_P2;Temp;Humidity;BMP_temperature;BMP_pressure;BME280_temperature;BME280_humidity;BME280_pressure;Samples;Min_cycle;Max_cycle;Signal;HPM_P1;HPM_P2
2023/06/14 00:00:57;;;;;;;8.25;7.45;;;;;;;18.28;75.78;94335.56;4210976;28;20048;-59
2023/06/14 00:02:59;;;;;;;10.85;7.45;;;;;;;18.33;75.41;94344.50;4209939;28;20067;-59
2023/06/14 00:05:01;;;;;;;9.48;7.75;;;;;;;18.37;75.41;94340.38;4210216;28;20488;-58
2023/06/14 00:07:03;;;;;;;8.55;7.00;;;;;;;18.39;75.11;94342.81;4212322;28;20048;-58
2023/06/14 00:09:08;;;;;;;11.63;6.40;;;;;;;18.36;74.81;94338.75;4224256;28;20063;-56
2023/06/14 00:11:10;;;;;;;8.60;7.45;;;;;;;18.35;74.89;94331.84;4214935;27;20052;-57
2023/06/14 00:13:11;;;;;;;8.50;7.55;;;;;;;18.34;75.09;94324.91;4214405;28;20151;-60
2023/06/14 00:15:13;;;;;;;7.65;6.78;;;;;;;18.39;74.84;94329.53;4213601;28;20083;-59
2023/06/14 00:17:16;;;;;;;14.68;7.70;;;;;;;18.41;74.83;94330.13;4214360;28;20050;-58
2023/06/14 00:19:19;;;;;;;7.28;6.53;;;;;;;18.46;74.56;94332.19;4213086;28;20044;-59
2023/06/14 00:21:21;;;;;;;6.93;6.22;;;;;;;18.46;74.24;94330.31;4213742;28;20040;-58
2023/06/14 00:23:23;;;;;;;9.77;7.13;;;;;;;18.46;73.98;94332.97;4213960;28;20374;-61
2023/06/14 00:25:25;;;;;;;7.82;6.95;;;;;;;18.45;74.27;94330.53;4213171;28;20044;-59
2023/06/14 00:27:30;;;;;;;8.95;7.18;;;;;;;18.45;74.80;94333.19;4213348;28;20288;-61
2023/06/14 00:29:32;;;;;;;11.50;7.15;;;;;;;18.38;74.86;94328.75;4214540;28;20052;-58
2023/06/14 00:31:33;;;;;;;9.35;7.20;;;;;;;18.34;75.25;94324.91;4213612;28;20048;-60
2023/06/14 00:33:35;;;;;;;9.40;6.80;;;;;;;18.35;75.26;94326.53;4214054;28;20529;-57
2023/06/14 00:35:37;;;;;;;7.78;6.45;;;;;;;18.29;74.69;94321.28;4205878;28;20055;-60
2023/06/14 00:37:39;;;;;;;10.00;6.97;;;;;;;18.22;75.20;94318.69;4213444;28;20043;-58
2023/06/14 00:39:41;;;;;;;9.95;6.85;;;;;;;18.24;75.33;94326.41;4210170;28;20055;-58
2023/06/14 00:41:42;;;;;;;7.45;6.63;;;;;;;18.11;75.05;94322.00;4213598;28;20044;-57
2023/06/14 00:43:44;;;;;;;7.35;4.93;;;;;;;17.95;75.12;94315.41;4210600;28;20087;-56
2023/06/14 00:45:46;;;;;;;8.05;5.30;;;;;;;17.70;75.98;94315.31;4213443;28;20083;-58
2023/06/14 00:47:52;;;;;;;7.75;5.20;;;;;;;17.60;76.81;94323.72;4205535;28;20067;-59
2023/06/14 00:49:55;;;;;;;6.20;5.40;;;;;;;17.59;77.41;94317.63;4211871;28;20097;-59
2023/06/14 00:51:57;;;;;;;7.43;5.70;;;;;;;17.65;77.65;94315.13;4211764;28;20040;-59
2023/06/14 00:53:59;;;;;;;9.30;5.55;;;;;;;17.43;77.57;94315.44;4212794;28;20051;-56
2023/06/14 00:56:01;;;;;;;7.03;5.07;;;;;;;17.45;77.92;94310.75;4213615;28;20561;-56
2023/06/14 00:58:03;;;;;;;6.78;6.07;;;;;;;17.50;78.27;94310.91;4212353;28;20040;-58
2023/06/14 01:00:09;;;;;;;8.57;6.03;;;;;;;17.58;78.46;94315.19;4209475;28;20052;-59
2023/06/14 01:02:12;;;;;;;7.85;5.95;;;;;;;17.63;78.33;94317.19;4215525;28;20051;-57
2023/06/14 01:04:14;;;;;;;11.57;6.00;;;;;;;17.34;78.33;94314.06;4212832;28;20534;-59
2023/06/14 01:06:29;;;;;;;7.93;6.55;;;;;;;17.11;79.16;94314.56;4213016;28;20421;-57
2023/06/14 01:08:37;;;;;;;7.88;7.00;;;;;;;17.04;80.06;94314.56;4211138;28;20052;-56
2023/06/14 01:11:12;;;;;;;10.88;7.85;;;;;;;16.89;80.42;94311.38;4212646;28;20048;-56
2023/06/14 01:13:33;;;;;;;10.65;7.88;;;;;;;16.85;80.40;94312.78;4195406;28;20060;-60
2023/06/14 01:15:36;;;;;;;12.13;7.70;;;;;;;16.81;80.90;94308.94;4216465;28;20079;-57
2023/06/14 01:17:41;;;;;;;8.87;7.37;;;;;;;16.90;80.84;94312.97;4212552;28;20127;-58
2023/06/14 01:19:44;;;;;;;13.07;8.80;;;;;;;16.82;80.66;94321.13;4210898;28;20043;-59
2023/06/14 01:21:45;;;;;;;9.13;8.13;;;;;;;16.87;80.80;94319.50;4213454;28;20082;-57
2023/06/14 01:23:52;;;;;;;9.27;8.32;;;;;;;16.89;80.56;94314.00;4213959;28;20185;-57
2023/06/14 01:25:55;;;;;;;11.43;8.70;;;;;;;16.86;81.34;94314.41;4217261;28;20048;-57
2023/06/14 01:28:02;;;;;;;11.50;7.32;;;;;;;16.93;81.19;94309.94;4213090;28;20086;-55
2023/06/14 01:30:05;;;;;;;8.25;7.28;;;;;;;16.97;80.93;94311.94;4213484;28;20055;-58
2023/06/14 01:32:07;;;;;;;10.07;6.13;;;;;;;17.08;80.43;94310.50;4217392;28;20058;-58
2023/06/14 01:34:09;;;;;;;7.13;5.43;;;;;;;17.13;79.79;94317.81;4213822;28;20682;-55
2023/06/14 01:36:11;;;;;;;9.45;6.20;;;;;;;17.15;79.89;94310.47;4212284;28;20110;-55
2023/06/14 01:38:13;;;;;;;6.05;5.45;;;;;;;17.16;79.69;94307.63;4196033;28;20076;-57
2023/06/14 01:40:17;;;;;;;6.65;5.30;;;;;;;17.16;80.03;94307.63;4211996;28;20630;-57
2023/06/14 01:42:19;;;;;;;;;;;;;;;17.26;80.23;94312.47;4212825;28;20051;-57
2023/06/14 01:44:22;;;;;;;5.85;5.30;;;;;;;17.27;79.28;94315.91;4208205;28;19963;-58
2023/06/14 01:46:24;;;;;;;7.53;5.60;;;;;;;17.24;79.86;94311.84;4211425;28;20055;-58
2023/06/14 01:48:26;;;;;;;6.30;5.43;;;;;;;17.29;79.85;94316.50;4207617;28;20144;-58
2023/06/14 01:50:30;;;;;;;6.35;5.75;;;;;;;17.37;79.56;94314.44;4211439;28;20134;-57
2023/06/14 01:52:31;;;;;;;;;;;;;;;17.40;78.97;94310.56;4214366;28;20080;-60
2023/06/14 01:54:33;;;;;;;7.68;5.65;;;;;;;17.38;78.78;94313.44;4212051;28;19926;-59
2023/06/14 01:56:35;;;;;;;6.18;5.47;;;;;;;17.35;79.30;94313.84;4212080;28;20075;-57
2023/06/14 01:58:37;;;;;;;8.57;5.90;;;;;;;17.29;79.79;94327.09;4212689;28;20536;-58
2023/06/14 02:00:40;;;;;;;6.05;5.45;;;;;;;17.31;80.05;94331.16;4211789;28;20063;-58
2023/06/14 02:02:41;;;;;;;6.37;5.77;;;;;;;17.26;80.35;94330.19;4199752;28;20051;-58
2023/06/14 02:04:43;;;;;;;7.30;6.35;;;;;;;17.23;80.18;94327.94;4211210;28;20137;-58
2023/06/14 02:06:45;;;;;;;8.50;6.65;;;;;;;17.28;80.50;94325.50;4213032;28;20560;-57
2023/06/14 02:08:47;;;;;;;7.97;6.78;;;;;;;17.29;80.41;94327.91;4221506;28;20135;-58
2023/06/14 02:10:48;;;;;;;8.65;6.03;;;;;;;17.31;80.22;94333.00;4211378;28;20048;-56
2023/06/14 02:12:50;;;;;;;8.50;6.65;;;;;;;17.33;80.31;94338.91;4221052;28;20040;-58
2023/06/14 02:14:52;;;;;;;6.85;5.78;;;;;;;16.88;80.26;94344.91;4211998;28;20055;-59
2023/06/14 02:16:54;;;;;;;8.75;6.50;;;;;;;16.50;82.70;94350.03;4221036;28;20084;-58
2023/06/14 02:18:56;;;;;;;7.72;6.80;;;;;;;16.31;84.21;94344.53;4214641;28;20079;-58
2023/06/14 02:20:58;;;;;;;7.60;6.80;;;;;;;16.29;84.05;94343.94;4210797;28;20135;-56
2023/06/14 02:23:00;;;;;;;9.00;6.95;;;;;;;16.26;84.63;94347.00;4212375;28;20127;-58
2023/06/14 02:25:02;;;;;;;10.55;7.55;;;;;;;16.33;84.72;94344.34;4211148;28;20066;-57
2023/06/14 02:27:04;;;;;;;9.07;7.30;;;;;;;16.07;84.67;94345.94;4201043;28;20048;-58
2023/06/14 02:29:08;;;;;;;9.38;7.20;;;;;;;16.12;85.03;94340.06;4209496;28;20446;-57
2023/06/14 02:31:10;;;;;;;;;;;;;;;16.16;85.44;94334.16;4212559;28;20052;-59
2023/06/14 02:33:12;;;;;;;11.32;7.40;;;;;;;16.26;84.93;94348.78;4211758;28;19920;-58
2023/06/14 02:35:14;;;;;;;9.02;7.00;;;;;;;16.13;84.54;94345.16;4198772;28;20056;-57
2023/06/14 02:37:16;;;;;;;8.20;7.22;;;;;;;16.08;85.24;94341.47;4210722;28;20137;-58
2023/06/14 02:39:20;;;;;;;7.55;6.85;;;;;;;15.98;85.21;94347.13;4211829;28;20048;-57
2023/06/14 02:41:22;;;;;;;7.88;7.07;;;;;;;16.03;85.66;94350.00;4211920;28;20551;-58
2023/06/14 02:43:24;;;;;;;8.40;7.00;;;;;;;16.08;85.32;94338.84;4210136;28;20054;-59
2023/06/14 02:45:25;;;;;;;8.20;7.25;;;;;;;16.11;85.53;94336.59;4212735;28;20106;-58
2023/06/14 02:47:27;;;;;;;8.05;7.20;;;;;;;16.12;85.21;94340.06;4204249;28;20146;-60
2023/06/14 02:49:29;;;;;;;7.72;6.65;;;;;;;16.25;85.47;94334.78;4211933;28;20047;-59
2023/06/14 02:51:31;;;;;;;9.15;6.38;;;;;;;16.40;84.58;94337.22;4211752;28;20052;-61
2023/06/14 02:53:33;;;;;;;7.10;6.47;;;;;;;16.57;84.26;94341.06;4211003;28;20048;-58
2023/06/14 02:55:39;;;;;;;8.07;6.35;;;;;;;16.74;83.29;94333.53;4207341;28;20052;-59
2023/06/14 02:57:41;;;;;;;9.38;6.53;;;;;;;16.81;81.79;94344.13;4211178;28;20123;-58
2023/06/14 02:59:43;;;;;;;7.25;6.47;;;;;;;16.86;81.49;94340.88;4205106;28;20071;-61
2023/06/14 03:01:45;;;;;;;8.68;6.20;;;;;;;16.87;80.72;94339.84;4211800;28;20048;-59
2023/06/14 03:03:47;;;;;;;8.80;6.28;;;;;;;16.89;80.84;94337.81;4209751;28;20062;-59
2023/06/14 03:05:49;;;;;;;8.43;6.18;;;;;;;16.96;80.60;94350.00;4211650;28;20509;-58
2023/06/14 03:07:53;;;;;;;10.32;6.07;;;;;;;17.01;80.53;94344.06;4211888;28;20094;-57
2023/06/14 03:09:55;;;;;;;6.25;5.65;;;;;;;17.01;80.13;94352.03;4210430;28;20048;-58
2023/06/14 03:11:57;;;;;;;7.75;5.97;;;;;;;17.05;80.02;94347.13;4210842;28;21659;-59
2023/06/14 03:13:59;;;;;;;7.63;6.20;;;;;;;16.98;79.86;94355.91;4211244;28;20079;-57
2023/06/14 03:16:04;;;;;;;7.63;5.97;;;;;;;16.93;80.08;94354.91;4211712;28;20581;-58
2023/06/14 03:18:09;;;;;;;8.02;6.50;;;;;;;16.51;81.18;94363.03;4211362;28;20079;-59
2023/06/14 03:20:12;;;;;;;7.45;5.82;;;;;;;16.35;82.04;94364.25;4198425;28;20101;-64
2023/06/14 03:22:14;;;;;;;7.15;5.97;;;;;;;16.40;82.17;94361.00;4211747;28;20051;-58
2023/06/14 03:24:18;;;;;;;7.05;6.10;;;;;;;16.50;82.07;94360.63;4210963;28;20048;-56
2023/06/14 03:26:21;;;;;;;9.43;6.70;;;;;;;16.46;81.95;94359.41;4210805;28;20123;-57
2023/06/14 03:28:22;;;;;;;9.88;6.57;;;;;;;16.49;81.96;94362.44;4211523;28;20044;-56
2023/06/14 03:30:24;;;;;;;7.47;6.75;;;;;;;16.23;82.82;94365.88;4210822;28;20048;-58
2023/06/14 03:32:26;;;;;;;7.70;6.65;;;;;;;15.99;84.46;94367.28;4210182;28;20056;-60
2023/06/14 03:34:28;;;;;;;7.60;6.80;;;;;;;15.94;85.11;94370.50;4209597;28;20055;-58
2023/06/14 03:36:30;;;;;;;7.88;6.90;;;;;;;16.16;85.30;94371.16;4211034;28;20621;-59
2023/06/14 03:38:32;;;;;;;8.45;6.93;;;;;;;16.35;84.72;94371.38;4211139;28;20097;-58
2023/06/14 03:40:34;;;;;;;9.57;6.03;;;;;;;16.52;83.39;94371.78;4217717;28;20058;-60
2023/06/14 03:42:36;;;;;;;10.88;6.55;;;;;;;16.68;82.88;94367.94;4200254;28;20531;-59
2023/06/14 03:44:38;;;;;;;8.05;6.53;;;;;;;16.82;82.00;94374.03;4211213;28;20050;-57
2023/06/14 03:46:39;;;;;;;11.00;6.95;;;;;;;16.93;81.59;94374.25;4210578;28;20584;-57
2023/06/14 03:48:41;;;;;;;8.80;7.05;;;;;;;17.08;80.90;94381.94;4208679;28;20089;-59
2023/06/14 03:50:44;;;;;;;6.38;5.78;;;;;;;17.20;80.27;94371.53;4210176;28;20216;-60
2023/06/14 03:52:48;;;;;;;7.18;6.47;;;;;;;17.28;79.69;94366.00;4211053;28;20048;-55
2023/06/14 03:54:51;;;;;;;7.95;6.55;;;;;;;17.18;78.75;94369.06;4221242;28;20133;-56
2023/06/14 03:56:56;;;;;;;8.65;6.88;;;;;;;17.05;79.83;94373.59;4207589;28;20048;-56
2023/06/14 03:58:58;;;;;;;7.35;6.13;;;;;;;17.07;80.29;94380.31;4209801;28;20056;-60
2023/06/14 04:01:00;;;;;;;9.38;6.90;;;;;;;17.14;80.23;94381.13;4210841;28;20040;-59
2023/06/14 04:03:03;;;;;;;10.15;6.65;;;;;;;17.24;79.68;94380.69;4210791;28;20048;-59
2023/06/14 04:05:08;;;;;;;16.08;6.90;;;;;;;17.25;79.35;94382.31;4209849;28;20048;-57
2023/06/14 04:07:11;;;;;;;10.82;8.07;;;;;;;17.16;78.72;94383.53;4208237;28;20055;-57
2023/06/14 04:09:13;;;;;;;9.70;7.50;;;;;;;17.15;79.68;94385.38;4195005;28;20117;-57
2023/06/14 04:11:15;;;;;;;11.45;7.85;;;;;;;17.19;79.41;94388.44;4205036;28;20052;-58
2023/06/14 04:13:17;;;;;;;8.02;7.22;;;;;;;17.23;79.21;94378.22;4210801;28;20048;-55
2023/06/14 04:15:19;;;;;;;11.25;7.78;;;;;;;17.33;79.08;94371.47;4209333;28;20086;-57
2023/06/14 04:17:22;;;;;;;11.85;7.30;;;;;;;17.45;78.46;94373.50;4204807;28;20052;-58
2023/06/14 04:19:24;;;;;;;10.23;7.25;;;;;;;17.57;77.97;94375.28;4204361;28;20044;-58
2023/06/14 04:21:28;;;;;;;7.30;6.60;;;;;;;17.71;77.62;94378.69;4211533;28;20484;-59
2023/06/14 04:23:30;;;;;;;9.80;7.22;;;;;;;17.88;76.58;94373.75;4209047;28;20094;-60
2023/06/14 04:25:32;;;;;;;10.43;7.47;;;;;;;18.05;75.93;94374.06;4209539;28;20052;-57
2023/06/14 04:27:35;;;;;;;8.20;7.25;;;;;;;18.21;75.21;94367.41;4211414;28;20071;-57
2023/06/14 04:29:38;;;;;;;;;;;;;;;18.34;74.37;94377.13;4208932;28;20063;-57
2023/06/14 04:31:41;;;;;;;9.75;7.95;;;;;;;18.48;73.74;94372.56;4211538;28;19939;-61
2023/06/14 04:33:46;;;;;;;10.65;7.72;;;;;;;18.60;72.94;94373.47;4210738;28;20553;-60
2023/06/14 04:35:48;;;;;;;12.45;8.35;;;;;;;18.65;72.74;94372.81;4210490;28;20044;-60
2023/06/14 04:37:50;;;;;;;10.57;7.85;;;;;;;18.69;72.39;94374.00;4210397;28;20051;-57
2023/06/14 04:39:52;;;;;;;11.90;7.78;;;;;;;18.77;72.15;94371.88;4209926;28;20078;-62
2023/06/14 04:41:56;;;;;;;11.00;7.40;;;;;;;18.86;71.82;94374.28;4210231;28;20050;-58
2023/06/14 04:44:01;;;;;;;13.00;8.07;;;;;;;18.92;71.28;94371.56;4210381;28;20070;-60
2023/06/14 04:46:10;;;;;;;11.75;7.68;;;;;;;19.01;71.20;94369.44;4200980;28;20047;-62
2023/06/14 04:48:13;;;;;;;8.73;7.50;;;;;;;19.07;71.00;94373.09;4210771;28;20051;-58
2023/06/14 04:50:16;;;;;;;8.95;7.90;;;;;;;19.04;70.63;94374.34;4210550;28;20685;-60
2023/06/14 04:52:20;;;;;;;11.43;8.43;;;;;;;19.13;70.82;94380.16;4210912;28;20048;-61
2023/06/14 04:54:22;;;;;;;9.75;8.75;;;;;;;19.24;70.50;94382.09;4213274;28;20050;-60
2023/06/14 04:56:29;;;;;;;11.35;8.88;;;;;;;19.32;70.55;94386.31;4216162;28;20058;-60
2023/06/14 04:58:31;;;;;;;10.20;8.40;;;;;;;19.35;70.37;94383.22;4209980;28;20056;-57
2023/06/14 05:00:33;;;;;;;9.48;8.40;;;;;;;19.34;69.94;94382.41;4217561;28;20056;-58
2023/06/14 05:02:35;;;;;;;9.25;8.27;;;;;;;19.41;69.66;94385.78;4213692;28;20044;-60
2023/06/14 05:04:40;;;;;;;10.10;8.25;;;;;;;19.42;69.31;94391.91;4214120;28;20471;-58
2023/06/14 05:06:44;;;;;;;10.40;8.15;;;;;;;19.44;69.43;94387.19;4214716;28;20048;-59
2023/06/14 05:08:46;;;;;;;12.98;10.02;;;;;;;19.41;69.74;94396.41;4213099;28;20047;-55
2023/06/14 05:10:48;;;;;;;12.27;8.82;;;;;;;19.40;70.04;94396.63;4216618;28;20505;-59
2023/06/14 05:12:50;;;;;;;11.00;8.63;;;;;;;19.43;69.81;94386.38;4209534;28;20401;-57
2023/06/14 05:14:51;;;;;;;13.25;9.05;;;;;;;19.43;69.60;94385.56;4217473;28;20553;-55
2023/06/14 05:16:53;;;;;;;11.48;9.00;;;;;;;19.43;69.67;94397.00;4213702;28;20536;-58
2023/06/14 05:18:55;;;;;;;10.15;9.15;;;;;;;19.30;69.88;94393.69;4211906;28;20052;-58
2023/06/14 05:20:57;;;;;;;11.68;9.85;;;;;;;19.21;70.05;94396.63;4212973;28;20583;-59
2023/06/14 05:22:58;;;;;;;11.05;9.88;;;;;;;19.10;70.69;94407.16;4214473;28;20067;-58
2023/06/14 05:25:00;;;;;;;12.38;10.07;;;;;;;19.02;70.79;94403.75;4216672;28;20044;-55
2023/06/14 05:27:02;;;;;;;10.77;9.68;;;;;;;19.07;70.98;94412.91;4218572;28;20048;-58
2023/06/14 05:29:04;;;;;;;11.50;9.85;;;;;;;19.00;71.04;94411.13;4215246;28;20047;-58
2023/06/14 05:31:06;;;;;;;12.38;10.38;;;;;;;19.00;71.38;94415.63;4217597;28;20094;-60
2023/06/14 05:33:07;;;;;;;13.88;10.10;;;;;;;18.94;71.30;94416.50;4213090;28;20048;-58
2023/06/14 05:35:10;;;;;;;13.50;10.45;;;;;;;18.86;71.38;94417.56;4212313;28;20052;-59
2023/06/14 05:37:13;;;;;;;12.13;10.57;;;;;;;18.94;71.87;94425.25;4212576;28;20058;-57
2023/06/14 05:39:14;;;;;;;11.20;10.00;;;;;;;19.08;71.42;94412.69;4212187;28;20458;-57
2023/06/14 05:41:16;;;;;;;12.73;10.13;;;;;;;19.05;70.84;94414.97;4216972;28;20138;-57
2023/06/14 05:43:18;;;;;;;13.50;10.18;;;;;;;18.77;72.24;94421.50;4211882;28;20048;-59
2023/06/14 05:45:20;;;;;;;12.32;9.63;;;;;;;18.35;73.38;94422.00;4210315;28;20471;-55
2023/06/14 05:47:21;;;;;;;14.63;10.23;;;;;;;18.04;75.21;94424.63;4204240;28;20040;-57
2023/06/14 05:49:23;;;;;;;15.68;11.88;;;;;;;17.96;75.60;94434.44;4210416;28;20054;-57
2023/06/14 05:51:25;;;;;;;15.60;12.63;;;;;;;17.90;75.81;94432.63;4212995;28;20538;-58
2023/06/14 05:53:27;;;;;;;19.45;12.73;;;;;;;17.91;75.33;94431.59;4212111;28;20446;-57
2023/06/14 05:55:28;;;;;;;16.23;12.73;;;;;;;18.08;75.26;94429.28;4211712;28;20051;-60
2023/06/14 05:57:30;;;;;;;14.70;11.55;;;;;;;18.30;74.52;94427.13;4212557;28;20048;-58
2023/06/14 05:59:32;;;;;;;14.82;11.48;;;;;;;18.37;74.37;94429.75;4212163;28;20507;-59
2023/06/14 06:01:36;;;;;;;15.25;12.15;;;;;;;18.40;73.81;94429.31;4212884;28;20101;-61
2023/06/14 06:03:38;;;;;;;14.20;12.18;;;;;;;18.19;73.79;94431.25;4212854;28;20559;-59
2023/06/14 06:05:40;;;;;;;13.95;12.45;;;;;;;18.26;73.90;94431.22;4209899;28;20058;-60
2023/06/14 06:07:44;;;;;;;15.48;11.55;;;;;;;18.38;74.58;94441.97;4194710;28;20128;-57
2023/06/14 06:09:45;;;;;;;14.40;11.80;;;;;;;18.49;74.18;94438.63;4205090;28;20086;-59
2023/06/14 06:11:47;;;;;;;17.80;12.40;;;;;;;18.65;74.16;94432.00;4198695;28;20048;-60
2023/06/14 06:13:54;;;;;;;15.30;11.60;;;;;;;18.72;72.85;94431.94;4212195;28;20078;-60
2023/06/14 06:15:56;;;;;;;17.35;12.02;;;;;;;18.54;73.47;94444.13;4221144;28;20070;-56
2023/06/14 06:17:58;;;;;;;14.43;11.88;;;;;;;18.27;74.10;94446.13;4205211;28;20131;-56
2023/06/14 06:20:00;;;;;;;15.93;11.55;;;;;;;18.35;74.59;94445.88;4209447;28;20062;-57
2023/06/14 06:22:02;;;;;;;16.20;11.85;;;;;;;18.35;74.88;94445.88;4213400;28;20094;-58
2023/06/14 06:24:05;;;;;;;14.40;10.77;;;;;;;18.21;74.80;94445.09;4212260;28;20048;-59
2023/06/14 06:26:07;;;;;;;14.32;10.85;;;;;;;18.21;75.80;94445.09;4211543;28;20611;-56
2023/06/14 06:28:09;;;;;;;14.10;11.38;;;;;;;18.19;75.85;94446.34;4215776;28;20048;-58
2023/06/14 06:30:11;;;;;;;17.67;11.80;;;;;;;18.17;76.10;94446.56;4221646;28;20048;-59
2023/06/14 06:32:13;;;;;;;15.88;11.73;;;;;;;18.27;75.86;94451.41;4222749;28;20051;-58
2023/06/14 06:34:14;;;;;;;13.18;11.70;;;;;;;18.02;76.07;94443.38;4212835;28;20048;-56
2023/06/14 06:36:16;;;;;;;14.25;11.90;;;;;;;17.99;76.72;94449.91;4212542;28;20048;-58
2023/06/14 06:38:18;;;;;;;18.13;11.02;;;;;;;18.12;76.31;94446.41;4212373;28;20067;-58
2023/06/14 06:40:20;;;;;;;18.23;12.45;;;;;;;18.30;75.89;94456.28;4210210;28;20059;-58
2023/06/14 06:42:22;;;;;;;14.45;11.82;;;;;;;18.48;75.43;94452.94;4210860;28;20093;-63
2023/06/14 06:44:24;;;;;;;15.68;12.13;;;;;;;18.61;74.68;94452.03;4215144;28;20080;-60
2023/06/14 06:46:25;;;;;;;17.15;11.60;;;;;;;18.70;74.61;94444.63;4212602;28;20130;-61
2023/06/14 06:48:27;;;;;;;22.23;12.02;;;;;;;18.78;74.29;94445.19;4212009;28;20097;-62
2023/06/14 06:50:30;;;;;;;15.93;11.73;;;;;;;18.88;74.20;94447.34;4211942;28;20051;-63
2023/06/14 06:52:32;;;;;;;16.42;11.40;;;;;;;19.03;74.17;94442.53;4211538;28;20093;-62
2023/06/14 06:54:34;;;;;;;18.05;11.25;;;;;;;19.29;74.01;94447.81;4211676;28;20056;-62
2023/06/14 06:56:36;;;;;;;14.68;12.23;;;;;;;19.53;72.57;94454.94;4204013;28;20048;-62
2023/06/14 06:58:38;;;;;;;17.67;11.65;;;;;;;19.87;71.18;94444.78;4202346;28;20492;-61
2023/06/14 07:00:39;;;;;;;11.43;10.23;;;;;;;20.20;70.20;94448.88;4208979;28;20097;-61
2023/06/14 07:02:41;;;;;;;13.77;12.32;;;;;;;20.35;68.42;94445.78;4211667;28;20048;-60
2023/06/14 07:04:43;;;;;;;18.58;11.82;;;;;;;20.51;68.31;94452.34;4210405;28;20126;-58
2023/06/14 07:06:46;;;;;;;16.98;12.38;;;;;;;20.62;68.17;94447.06;4211756;28;20405;-60
2023/06/14 07:08:48;;;;;;;13.52;12.07;;;;;;;20.84;67.72;94450.03;4210921;28;20132;-57
2023/06/14 07:10:50;;;;;;;15.18;11.88;;;;;;;21.06;65.74;94452.16;4210786;28;20048;-61
2023/06/14 07:12:51;;;;;;;16.67;13.80;;;;;;;20.71;65.42;94452.88;4211369;28;20371;-60
2023/06/14 07:14:53;;;;;;;21.92;14.68;;;;;;;20.39;66.47;94446.97;4211132;28;20052;-58
2023/06/14 07:16:55;;;;;;;17.42;14.10;;;;;;;20.30;67.45;94449.13;4210430;28;20140;-61
2023/06/14 07:18:57;;;;;;;14.93;13.10;;;;;;;20.37;68.11;94444.56;4211134;28;20056;-60
2023/06/14 07:20:58;;;;;;;15.38;11.73;;;;;;;20.59;67.34;94441.41;4211612;28;20481;-61
2023/06/14 07:23:00;;;;;;;14.18;12.63;;;;;;;20.79;66.42;94439.25;4211282;28;20056;-59
2023/06/14 07:25:02;;;;;;;18.88;13.38;;;;;;;20.74;65.68;94438.34;4210232;28;20469;-58
2023/06/14 07:27:04;;;;;;;14.73;12.48;;;;;;;20.80;66.37;94443.56;4211189;28;20066;-60
2023/06/14 07:29:06;;;;;;;19.25;13.65;;;;;;;20.80;65.58;94440.88;4210940;28;20047;-58
2023/06/14 07:31:08;;;;;;;20.17;13.02;;;;;;;20.82;65.42;94440.63;4210667;28;20048;-57
2023/06/14 07:33:11;;;;;;;16.00;13.10;;;;;;;20.69;65.55;94439.00;4211024;28;20146;-57
2023/06/14 07:35:13;;;;;;;15.70;11.88;;;;;;;20.76;66.22;94439.72;4210070;28;20044;-55
2023/06/14 07:37:15;;;;;;;15.20;12.82;;;;;;;20.74;65.95;94433.00;4210704;28;20048;-55
2023/06/14 07:39:17;;;;;;;16.15;14.48;;;;;;;20.79;66.07;94441.91;4210388;28;20060;-59
2023/06/14 07:41:18;;;;;;;16.83;12.57;;;;;;;20.83;65.09;94436.94;4207263;28;20039;-59
2023/06/14 07:43:20;;;;;;;18.65;12.00;;;;;;;20.82;65.11;94436.16;4210134;28;20520;-58
2023/06/14 07:45:23;;;;;;;18.50;11.23;;;;;;;20.63;64.49;94439.94;4209671;28;20048;-58
2023/06/14 07:47:25;;;;;;;15.52;10.77;;;;;;;20.60;64.87;94443.03;4210869;28;20083;-57
2023/06/14 07:49:27;;;;;;;13.95;10.48;;;;;;;20.80;65.20;94440.88;4210583;28;20880;-57
2023/06/14 07:51:29;;;;;;;16.35;11.95;;;;;;;21.07;64.68;94443.13;4211446;28;20052;-60
2023/06/14 07:53:31;;;;;;;14.20;11.73;;;;;;;21.15;63.50;94444.63;4210337;28;20052;-58
2023/06/14 07:55:36;;;;;;;14.82;12.00;;;;;;;21.27;62.97;94456.09;4198338;28;20048;-56
2023/06/14 07:57:54;;;;;;;14.75;12.05;;;;;;;21.38;63.35;94452.63;4205038;28;20123;-59
2023/06/14 07:59:55;;;;;;;18.67;11.73;;;;;;;21.50;63.38;94457.97;4210763;28;20074;-60
2023/06/14 08:01:57;;;;;;;14.27;11.02;;;;;;;21.71;63.17;94451.25;4211586;28;20051;-61
2023/06/14 08:03:59;;;;;;;22.13;13.88;;;;;;;21.49;63.52;94459.03;4210256;28;20055;-60
2023/06/14 08:06:01;;;;;;;18.05;13.90;;;;;;;21.60;63.80;94458.22;4205329;28;20044;-56
2023/06/14 08:08:03;;;;;;;18.00;13.48;;;;;;;21.72;62.82;94460.03;4208660;28;20060;-59
2023/06/14 08:10:06;;;;;;;15.93;13.18;;;;;;;21.59;62.17;94467.22;4209474;28;20117;-61
2023/06/14 08:12:09;;;;;;;15.00;10.95;;;;;;;21.21;62.00;94473.81;4211259;28;20048;-59
2023/06/14 08:14:11;;;;;;;22.27;12.18;;;;;;;21.34;62.42;94477.28;4210827;28;20052;-57
2023/06/14 08:16:13;;;;;;;16.17;11.82;;;;;;;21.43;61.44;94473.28;4209414;28;20052;-62
2023/06/14 08:18:15;;;;;;;13.20;11.18;;;;;;;21.40;61.13;94471.88;4209854;28;20171;-59
2023/06/14 08:20:17;;;;;;;15.77;12.00;;;;;;;21.44;61.61;94475.69;4218032;28;20055;-59
2023/06/14 08:22:19;;;;;;;14.75;11.48;;;;;;;21.56;60.90;94475.72;4210943;28;20044;-59
2023/06/14 08:24:24;;;;;;;15.95;10.93;;;;;;;21.60;61.07;94468.88;4209726;28;20567;-61
2023/06/14 08:26:28;;;;;;;15.77;11.35;;;;;;;21.72;61.38;94473.38;4211961;28;20044;-57
2023/06/14 08:28:30;;;;;;;17.48;12.63;;;;;;;21.85;61.30;94479.28;4219079;28;20464;-58
2023/06/14 08:30:32;;;;;;;17.73;11.93;;;;;;;22.00;60.73;94480.63;4212817;28;20073;-57
2023/06/14 08:32:34;;;;;;;13.68;11.32;;;;;;;22.13;60.68;94482.22;4219811;28;20127;-58
2023/06/14 08:34:36;;;;;;;14.25;11.93;;;;;;;22.34;60.43;94478.13;4203924;28;20048;-58
2023/06/14 08:36:38;;;;;;;18.05;13.90;;;;;;;22.42;60.72;94480.44;4218546;28;20130;-57
2023/06/14 08:38:39;;;;;;;15.68;12.35;;;;;;;22.39;59.72;94486.22;4224600;28;20047;-59
2023/06/14 08:40:42;;;;;;;16.83;12.52;;;;;;;22.26;60.07;94473.97;4212395;28;20048;-57
2023/06/14 08:42:45;;;;;;;15.02;13.40;;;;;;;22.16;59.75;94473.75;4211963;28;20058;-60
2023/06/14 08:44:47;;;;;;;14.82;12.40;;;;;;;21.93;60.32;94472.75;4220250;28;20473;-59
2023/06/14 08:46:48;;;;;;;17.85;11.95;;;;;;;21.99;60.86;94468.34;4220216;28;20051;-61
2023/06/14 08:48:52;;;;;;;16.45;11.82;;;;;;;22.09;60.80;94469.38;4211305;28;20135;-62
2023/06/14 08:51:01;;;;;;;14.60;11.68;;;;;;;22.19;59.26;94465.28;4207527;28;20078;-63
2023/06/14 08:53:03;;;;;;;21.17;12.52;;;;;;;21.77;59.98;94463.63;4205961;28;20075;-61
2023/06/14 08:55:09;;;;;;;13.68;11.80;;;;;;;21.74;60.23;94468.63;4212389;28;20117;-61
2023/06/14 08:57:15;;;;;;;14.70;12.55;;;;;;;21.78;60.61;94467.91;4214134;28;20040;-60
2023/06/14 08:59:17;;;;;;;18.33;12.73;;;;;;;22.06;60.22;94461.03;4207153;28;20464;-61
2023/06/14 09:01:23;;;;;;;16.08;12.40;;;;;;;22.45;60.64;94463.94;4213691;28;20048;-62
2023/06/14 09:03:29;;;;;;;17.30;12.98;;;;;;;22.75;59.63;94461.00;4213236;28;20123;-60
2023/06/14 09:05:31;;;;;;;15.95;12.88;;;;;;;22.96;58.81;94459.50;4211678;28;20055;-60
2023/06/14 09:07:33;;;;;;;19.42;12.40;;;;;;;23.01;57.74;94472.16;4214191;28;20051;-61
2023/06/14 09:09:40;;;;;;;15.48;12.60;;;;;;;22.99;57.68;94460.88;4213096;28;20058;-60
2023/06/14 09:11:49;;;;;;;21.48;12.20;;;;;;;22.82;56.87;94461.69;4213423;28;20071;-61
2023/06/14 09:13:51;;;;;;;13.82;11.52;;;;;;;22.68;56.76;94458.47;4213256;28;20059;-62
2023/06/14 09:15:53;;;;;;;13.90;11.65;;;;;;;22.79;57.41;94453.31;4213426;28;20065;-61
2023/06/14 09:17:55;;;;;;;14.43;12.27;;;;;;;22.86;58.04;94449.44;4213681;28;20477;-62
2023/06/14 09:19:58;;;;;;;13.75;12.18;;;;;;;22.86;57.16;94449.44;4211716;28;20052;-59
2023/06/14 09:22:18;;;;;;;16.13;11.57;;;;;;;22.89;57.78;94448.97;4212477;28;20055;-58
2023/06/14 09:24:20;;;;;;;12.75;11.40;;;;;;;23.29;57.67;94444.53;4212687;28;20273;-59
2023/06/14 09:26:23;;;;;;;13.43;10.77;;;;;;;23.44;56.67;94449.31;4212225;28;20086;-58
2023/06/14 09:28:28;;;;;;;13.55;12.13;;;;;;;23.45;55.69;94440.25;4212987;28;20048;-58
2023/06/14 09:30:29;;;;;;;17.35;11.35;;;;;;;23.53;55.63;94442.47;4212140;28;20048;-57
2023/06/14 09:32:31;;;;;;;13.63;10.90;;;;;;;23.58;55.19;94447.09;4211773;28;20627;-57